Time;durP1;ratioP1;P1;durP2;ratioP2;P2;SDS_P1;SDS_P2;PMS_P1;PMS_P2;Temp;Humidity;BMP_temperature;BMP_pressure;BME280_temperature;BME280_humidity;BME280_pressure;Samples;Min_cycle;Max_cycle;Signal;HPM_P1;HPM_P2
2022/06/06 00:00:43;;;;;;;17.10;13.50;;;14.10;99.90;;;;;;5074289;28;20055;-73
2022/06/06 00:03:10;;;;;;;16.88;13.40;;;14.00;99.90;;;;;;5074876;28;20029;-73
2022/06/06 00:05:39;;;;;;;13.73;11.70;;;14.00;99.90;;;;;;5059084;28;20514;-75
2022/06/06 00:08:04;;;;;;;18.80;14.18;;;13.90;99.90;;;;;;5074487;28;20031;-74
2022/06/06 00:10:30;;;;;;;16.77;14.52;;;13.90;99.90;;;;;;5074092;28;20020;-75
2022/06/06 00:12:56;;;;;;;16.73;13.95;;;13.80;99.90;;;;;;5073057;28;20040;-75
2022/06/06 00:15:22;;;;;;;16.33;14.63;;;13.80;99.90;;;;;;5073236;28;20106;-75
2022/06/06 00:17:48;;;;;;;14.60;13.10;;;13.80;99.90;;;;;;5053070;28;20017;-74
2022/06/06 00:20:15;;;;;;;16.98;14.20;;;13.80;99.90;;;;;;5053866;28;20032;-74
2022/06/06 00:22:42;;;;;;;15.45;12.95;;;13.90;99.90;;;;;;5054349;28;20028;-73
2022/06/06 00:25:08;;;;;;;14.73;13.13;;;13.80;99.90;;;;;;5053694;28;20074;-75
2022/06/06 00:27:34;;;;;;;15.52;12.95;;;13.90;99.90;;;;;;5054135;28;20024;-74
2022/06/06 00:30:00;;;;;;;14.45;12.48;;;13.80;99.90;;;;;;5054133;28;20033;-73
2022/06/06 00:35:10;;;;;;;18.88;14.50;;;13.80;99.90;;;;;;5054731;28;20456;-75
2022/06/06 00:37:38;;;;;;;15.55;13.20;;;13.80;99.90;;;;;;5074015;28;20024;-74
2022/06/06 00:40:07;;;;;;;16.70;14.52;;;13.70;99.90;;;;;;5073530;28;20108;-74
2022/06/06 00:42:38;;;;;;;16.60;13.82;;;13.70;99.90;;;;;;5073977;28;20056;-75
2022/06/06 00:45:21;;;;;;;15.80;12.95;;;13.60;99.90;;;;;;5073481;28;20016;-73
2022/06/06 00:47:59;;;;;;;14.95;13.43;;;13.50;99.90;;;;;;5073939;28;20029;-72
2022/06/06 00:50:37;;;;;;;16.15;12.88;;;13.50;99.90;;;;;;5073357;28;20549;-73
2022/06/06 00:53:03;;;;;;;14.95;13.25;;;13.50;99.90;;;;;;5073474;28;20039;-72
2022/06/06 00:55:32;;;;;;;18.05;15.23;;;13.50;99.90;;;;;;5071983;28;20120;-75
2022/06/06 00:58:05;;;;;;;17.55;14.30;;;13.50;99.90;;;;;;5073634;28;20032;-75
2022/06/06 01:00:31;;;;;;;15.75;13.25;;;13.50;99.90;;;;;;5072153;28;20434;-75
2022/06/06 01:03:01;;;;;;;15.65;14.02;;;13.40;99.90;;;;;;5073558;28;20032;-73
2022/06/06 01:05:27;;;;;;;16.52;14.00;;;13.50;99.90;;;;;;5056055;28;20515;-75
2022/06/06 01:07:53;;;;;;;15.68;14.05;;;13.40;99.90;;;;;;5073490;28;20056;-73
2022/06/06 01:10:20;;;;;;;16.23;14.32;;;13.40;99.90;;;;;;5072748;28;20032;-75
2022/06/06 01:12:49;;;;;;;20.02;14.88;;;13.40;99.90;;;;;;5073459;28;20085;-73
2022/06/06 01:15:18;;;;;;;17.83;13.32;;;13.40;99.90;;;;;;5072803;28;20021;-73
2022/06/06 01:17:52;;;;;;;16.38;14.05;;;13.40;99.90;;;;;;5053452;28;20021;-73
2022/06/06 01:20:17;;;;;;;16.27;13.70;;;13.40;99.90;;;;;;5052878;28;20013;-75
2022/06/06 01:22:57;;;;;;;15.90;14.23;;;13.50;99.90;;;;;;5053351;28;20021;-72
2022/06/06 01:25:47;;;;;;;17.23;14.98;;;13.50;99.90;;;;;;5052691;28;20055;-73
2022/06/06 01:28:35;;;;;;;17.73;14.90;;;13.50;99.90;;;;;;5053140;28;20082;-75
2022/06/06 01:31:06;;;;;;;15.82;14.15;;;13.50;99.90;;;;;;5052602;28;20053;-72
2022/06/06 01:33:51;;;;;;;16.10;14.40;;;13.50;99.90;;;;;;5053084;28;20028;-74
2022/06/06 01:36:17;;;;;;;18.35;14.48;;;13.50;99.90;;;;;;5051391;28;20028;-73
2022/06/06 01:38:43;;;;;;;15.38;13.68;;;13.60;99.90;;;;;;5051740;28;20035;-75
2022/06/06 01:41:15;;;;;;;16.60;13.52;;;13.60;99.90;;;;;;5051292;28;20025;-74
2022/06/06 01:44:04;;;;;;;17.05;12.65;;;13.50;99.90;;;;;;5052994;28;20052;-75
2022/06/06 01:46:35;;;;;;;16.35;13.70;;;13.60;99.90;;;;;;5052567;28;20039;-73
2022/06/06 01:49:02;;;;;;;16.50;14.10;;;13.60;99.90;;;;;;5052956;28;20497;-75
2022/06/06 01:51:30;;;;;;;15.02;13.35;;;13.60;99.90;;;;;;5052693;28;20025;-73
2022/06/06 01:53:56;;;;;;;18.48;14.10;;;13.60;99.90;;;;;;5057029;28;20024;-75
2022/06/06 01:56:40;;;;;;;15.93;13.23;;;13.60;99.90;;;;;;5056615;28;20045;-73
2022/06/06 01:59:06;;;;;;;17.08;14.43;;;13.50;99.90;;;;;;5056936;28;20391;-75
2022/06/06 02:01:32;;;;;;;16.88;13.52;;;13.50;99.90;;;;;;5056470;28;20025;-72
2022/06/06 02:03:58;;;;;;;18.58;14.52;;;13.40;99.90;;;;;;5063560;28;20020;-73
2022/06/06 02:06:24;;;;;;;15.52;13.93;;;13.40;99.90;;;;;;5065052;28;20186;-73
2022/06/06 02:08:53;;;;;;;17.55;14.73;;;13.40;99.90;;;;;;5056827;28;20053;-75
2022/06/06 02:11:19;;;;;;;16.92;15.00;;;13.30;99.90;;;;;;5056577;28;20104;-72
2022/06/06 02:13:45;;;;;;;17.40;14.98;;;13.30;99.90;;;;;;5056688;28;20090;-75
2022/06/06 02:16:11;;;;;;;19.67;15.07;;;13.30;99.90;;;;;;5063997;28;20024;-75
2022/06/06 02:18:36;;;;;;;17.25;15.18;;;13.30;99.90;;;;;;5076537;28;20037;-75
2022/06/06 02:21:03;;;;;;;17.70;14.35;;;13.30;99.90;;;;;;5067691;28;20032;-72
2022/06/06 02:23:30;;;;;;;17.55;15.73;;;13.30;99.90;;;;;;5057421;28;20025;-76
2022/06/06 02:25:56;;;;;;;15.15;13.63;;;13.20;99.90;;;;;;5068632;28;20014;-76
2022/06/06 02:28:23;;;;;;;17.27;13.77;;;13.30;99.90;;;;;;5055227;28;20505;-73
2022/06/06 02:30:48;;;;;;;17.50;14.73;;;13.20;99.90;;;;;;5062203;28;20032;-73
2022/06/06 02:33:14;;;;;;;17.27;14.27;;;13.20;99.90;;;;;;5076377;28;20037;-73
2022/06/06 02:35:41;;;;;;;18.70;15.88;;;13.20;99.90;;;;;;5074295;28;20016;-73
2022/06/06 02:38:08;;;;;;;16.63;14.60;;;13.20;99.90;;;;;;5074979;28;20028;-72
2022/06/06 02:40:34;;;;;;;19.30;14.73;;;13.20;99.90;;;;;;5075649;28;20027;-72
2022/06/06 02:42:59;;;;;;;18.38;15.05;;;13.10;99.90;;;;;;5074891;28;20021;-73
2022/06/06 02:45:25;;;;;;;17.02;14.70;;;13.10;99.90;;;;;;5075594;28;20025;-72
2022/06/06 02:47:54;;;;;;;17.27;13.32;;;13.10;99.90;;;;;;5074841;28;20017;-73
2022/06/06 02:50:23;;;;;;;16.88;13.55;;;13.00;99.90;;;;;;5075467;28;20024;-75
2022/06/06 02:52:49;;;;;;;17.70;14.32;;;13.00;99.90;;;;;;5074648;28;20028;-72
2022/06/06 02:55:15;;;;;;;18.00;14.68;;;13.00;99.90;;;;;;5073966;28;20492;-75
2022/06/06 02:57:43;;;;;;;17.65;14.30;;;13.10;99.90;;;;;;5075903;28;20082;-73
2022/06/06 03:00:13;;;;;;;17.88;13.93;;;13.10;99.90;;;;;;5075255;28;20032;-73
2022/06/06 03:02:39;;;;;;;15.80;13.63;;;13.20;99.90;;;;;;5074974;28;20108;-72
2022/06/06 03:05:06;;;;;;;16.90;14.35;;;13.30;99.90;;;;;;5058032;28;20084;-73
2022/06/06 03:08:15;;;;;;;14.63;13.10;;;13.40;99.90;;;;;;5075822;28;20021;-73
2022/06/06 03:10:53;;;;;;;14.32;12.70;;;13.50;99.90;;;;;;5075209;28;20020;-75
2022/06/06 03:13:33;;;;;;;15.07;13.45;;;13.60;99.90;;;;;;5075672;28;20111;-76
2022/06/06 03:22:58;;;;;;;15.20;12.95;;;13.90;99.90;;;;;;5055234;28;20051;-73
2022/06/06 03:25:46;;;;;;;16.05;13.55;;;13.90;99.90;;;;;;5054933;28;20060;-72
2022/06/06 03:28:38;;;;;;;15.10;12.88;;;13.90;99.90;;;;;;5055565;28;20025;-73
2022/06/06 03:31:19;;;;;;;14.82;13.25;;;14.00;99.90;;;;;;5054912;28;20017;-73
2022/06/06 03:33:50;;;;;;;14.70;13.07;;;14.00;99.90;;;;;;5053989;28;20044;-72
2022/06/06 03:36:28;;;;;;;15.32;12.75;;;14.20;99.90;;;;;;5054609;28;20052;-75
2022/06/06 03:39:34;;;;;;;16.35;14.32;;;14.20;99.90;;;;;;5055294;28;20021;-76
2022/06/06 03:42:13;;;;;;;16.08;14.02;;;14.10;99.90;;;;;;5041933;28;20090;-72
2022/06/06 03:44:53;;;;;;;16.00;12.68;;;14.10;99.90;;;;;;5055100;28;20025;-72
2022/06/06 03:47:37;;;;;;;15.85;12.63;;;14.10;99.90;;;;;;5054531;28;20033;-76
2022/06/06 03:50:42;;;;;;;14.15;12.70;;;14.30;99.90;;;;;;5053290;28;20540;-72
2022/06/06 03:53:27;;;;;;;13.77;12.25;;;14.40;99.90;;;;;;4977263;28;20470;-75
2022/06/06 03:56:11;;;;;;;14.45;12.32;;;14.50;99.90;;;;;;5056495;28;20505;-75
2022/06/06 03:58:39;;;;;;;13.15;11.75;;;14.60;99.90;;;;;;5073659;28;20120;-73
2022/06/06 04:01:09;;;;;;;13.05;11.75;;;14.70;99.90;;;;;;5074163;28;20024;-75
2022/06/06 04:03:37;;;;;;;12.73;11.43;;;14.90;99.90;;;;;;5068408;28;20032;-74
2022/06/06 04:06:04;;;;;;;13.25;11.95;;;15.00;99.90;;;;;;5064347;28;20052;-75
2022/06/06 04:08:32;;;;;;;13.77;12.40;;;15.10;99.90;;;;;;5054669;28;20100;-75
2022/06/06 04:11:19;;;;;;;13.73;12.07;;;15.30;99.90;;;;;;5053980;28;20455;-73
2022/06/06 04:13:51;;;;;;;11.98;10.68;;;15.50;99.90;;;;;;5054454;28;20455;-75
2022/06/06 04:16:37;;;;;;;11.25;10.15;;;15.50;99.90;;;;;;5052946;28;20033;-76
2022/06/06 04:19:14;;;;;;;11.95;10.75;;;15.70;99.90;;;;;;5040525;28;20041;-76
2022/06/06 04:22:10;;;;;;;12.48;11.18;;;15.80;99.90;;;;;;5053724;28;20029;-73
2022/06/06 04:25:00;;;;;;;11.85;10.73;;;15.80;99.90;;;;;;5054351;28;20029;-73
2022/06/06 04:27:38;;;;;;;11.55;10.38;;;16.10;99.90;;;;;;5054257;28;20021;-76
2022/06/06 04:30:25;;;;;;;10.63;9.38;;;16.20;99.90;;;;;;5052481;28;20024;-73
2022/06/06 04:33:11;;;;;;;10.15;9.05;;;16.40;99.90;;;;;;5054098;28;20048;-72
2022/06/06 04:35:56;;;;;;;10.25;9.13;;;16.60;93.60;;;;;;5053620;28;20032;-76
2022/06/06 04:38:33;;;;;;;11.57;10.43;;;16.80;91.10;;;;;;5078191;28;20462;-76
2022/06/06 04:41:17;;;;;;;10.07;9.02;;;17.00;89.60;;;;;;5064003;28;20023;-72
2022/06/06 04:43:54;;;;;;;11.32;9.85;;;17.10;87.60;;;;;;5061524;28;20474;-72
2022/06/06 04:46:29;;;;;;;9.43;8.38;;;17.30;86.80;;;;;;5063013;28;20386;-73
2022/06/06 04:48:57;;;;;;;13.25;8.48;;;17.50;87.50;;;;;;5062241;28;20459;-72
2022/06/06 04:51:23;;;;;;;9.95;8.95;;;17.70;84.80;;;;;;5064237;28;20356;-74
2022/06/06 04:53:54;;;;;;;9.18;8.07;;;17.70;83.50;;;;;;5062707;28;20043;-77
2022/06/06 04:56:21;;;;;;;9.25;8.35;;;17.80;81.80;;;;;;5051557;28;20146;-77
2022/06/06 04:58:50;;;;;;;10.38;8.63;;;17.80;81.90;;;;;;5061511;28;20021;-77
2022/06/06 05:01:16;;;;;;;9.50;8.13;;;17.80;83.50;;;;;;5055652;28;20036;-74
2022/06/06 05:03:43;;;;;;;9.18;8.27;;;17.90;83.30;;;;;;5059117;28;20024;-74
2022/06/06 05:06:26;;;;;;;8.45;7.68;;;17.90;81.30;;;;;;5063714;28;20052;-77
2022/06/06 05:09:19;;;;;;;9.98;8.98;;;18.00;80.90;;;;;;5053660;28;20588;-75
2022/06/06 05:12:12;;;;;;;10.60;8.50;;;18.10;80.50;;;;;;5065593;28;20097;-77
2022/06/06 05:14:57;;;;;;;11.35;9.30;;;18.20;81.80;;;;;;5072177;28;20386;-74
2022/06/06 05:17:26;;;;;;;8.88;7.97;;;18.30;81.00;;;;;;5052494;28;20479;-77
2022/06/06 05:19:54;;;;;;;8.23;7.18;;;18.30;81.00;;;;;;5052830;28;20039;-74
2022/06/06 05:22:23;;;;;;;9.40;7.85;;;18.40;80.40;;;;;;5071321;28;20029;-77
2022/06/06 05:25:00;;;;;;;8.50;7.80;;;18.50;80.90;;;;;;5069925;28;20079;-74
2022/06/06 05:27:59;;;;;;;8.70;7.90;;;18.60;81.50;;;;;;5052535;28;20036;-74
2022/06/06 05:31:09;;;;;;;9.00;7.30;;;18.60;79.30;;;;;;5059104;28;20096;-76
2022/06/06 05:33:45;;;;;;;8.65;7.85;;;18.60;77.60;;;;;;5009572;28;20041;-77
2022/06/06 05:36:29;;;;;;;8.73;7.93;;;18.60;79.10;;;;;;5047120;28;20517;-77
2022/06/06 05:39:09;;;;;;;8.63;7.90;;;18.70;79.70;;;;;;5052533;28;20017;-78
2022/06/06 05:41:47;;;;;;;8.13;7.43;;;18.80;81.30;;;;;;5052412;28;20367;-78
2022/06/06 05:44:37;;;;;;;8.52;7.72;;;18.90;75.40;;;;;;5056874;28;20073;-77
2022/06/06 05:47:28;;;;;;;8.65;7.65;;;19.00;74.80;;;;;;5055997;28;20021;-77
2022/06/06 05:50:39;;;;;;;8.60;7.80;;;19.10;75.70;;;;;;5050251;28;20150;-75
2022/06/06 05:53:36;;;;;;;11.23;7.50;;;19.20;74.40;;;;;;5050368;28;20524;-74
2022/06/06 05:56:19;;;;;;;7.97;7.20;;;19.30;73.90;;;;;;5058965;28;20571;-74
2022/06/06 05:59:13;;;;;;;8.07;7.38;;;19.40;73.90;;;;;;5051015;28;20100;-74
2022/06/06 06:01:56;;;;;;;7.82;7.13;;;19.50;74.40;;;;;;5053842;28;20021;-74
2022/06/06 06:04:30;;;;;;;;;;;19.50;72.20;;;;;;5061803;28;20017;-75
2022/06/06 06:07:02;;;;;;;8.10;7.30;;;19.60;74.20;;;;;;5063201;28;20285;-75
2022/06/06 06:09:43;;;;;;;7.68;6.90;;;19.70;75.60;;;;;;5069310;28;20029;-77
2022/06/06 06:12:39;;;;;;;7.40;6.70;;;19.90;73.20;;;;;;5069730;28;20410;-75
2022/06/06 06:15:26;;;;;;;9.07;6.70;;;19.90;73.40;;;;;;5054038;28;20041;-75
2022/06/06 06:17:56;;;;;;;7.85;7.05;;;20.00;70.40;;;;;;5054511;28;20025;-74
2022/06/06 06:20:33;;;;;;;8.93;7.60;;;20.10;69.70;;;;;;5051641;28;20048;-75
2022/06/06 06:23:14;;;;;;;7.60;7.00;;;20.30;71.20;;;;;;5055432;28;20044;-75
2022/06/06 06:25:41;;;;;;;7.00;6.40;;;20.60;69.10;;;;;;5059463;28;20037;-75
2022/06/06 06:28:11;;;;;;;6.75;6.13;;;20.70;66.00;;;;;;5057603;28;20090;-75
2022/06/06 06:31:19;;;;;;;7.97;6.90;;;20.80;66.70;;;;;;5060519;28;20083;-76
2022/06/06 06:34:10;;;;;;;7.10;6.50;;;21.00;66.60;;;;;;5071052;28;20045;-74
2022/06/06 06:36:46;;;;;;;7.50;6.40;;;21.10;64.40;;;;;;5059247;28;20371;-74
2022/06/06 06:39:17;;;;;;;7.50;6.63;;;21.40;64.50;;;;;;5054256;28;20414;-73
2022/06/06 06:42:04;;;;;;;7.20;6.60;;;21.50;64.00;;;;;;5056075;28;20025;-74
2022/06/06 06:44:39;;;;;;;7.00;6.40;;;21.50;63.40;;;;;;5055775;28;20025;-73
2022/06/06 06:47:14;;;;;;;6.90;6.30;;;21.50;63.30;;;;;;5056341;28;20082;-73
2022/06/06 06:49:52;;;;;;;7.03;6.32;;;21.50;63.40;;;;;;5055024;28;20387;-74
2022/06/06 06:52:46;;;;;;;7.82;6.45;;;21.50;62.90;;;;;;5055591;28;20442;-74
2022/06/06 06:55:19;;;;;;;7.05;6.47;;;21.60;63.50;;;;;;5052184;28;20037;-74
2022/06/06 06:58:08;;;;;;;7.05;6.45;;;21.70;62.90;;;;;;5052802;28;20406;-75
2022/06/06 07:00:56;;;;;;;7.53;6.82;;;21.80;63.30;;;;;;5061265;28;20048;-73
2022/06/06 07:09:42;;;;;;;6.18;5.60;;;21.60;63.20;;;;;;5074794;28;20039;-74
2022/06/06 07:12:27;;;;;;;7.03;6.03;;;21.60;64.10;;;;;;5074442;28;20040;-73
2022/06/06 07:14:56;;;;;;;7.43;6.50;;;21.90;62.90;;;;;;5074394;28;20031;-74
2022/06/06 07:17:24;;;;;;;7.13;6.55;;;22.10;62.60;;;;;;5054480;28;20052;-74
2022/06/06 07:20:02;;;;;;;6.63;6.03;;;22.10;63.00;;;;;;5054207;28;20032;-75
2022/06/06 07:22:59;;;;;;;6.60;5.90;;;22.10;61.20;;;;;;5074028;28;20024;-75
2022/06/06 07:25:23;;;;;;;8.20;6.15;;;22.10;62.10;;;;;;5074737;28;20052;-75
2022/06/06 07:27:50;;;;;;;6.13;5.53;;;22.10;60.90;;;;;;5074331;28;20052;-75
2022/06/06 07:30:16;;;;;;;5.88;5.38;;;22.00;60.90;;;;;;5074853;28;20470;-74
2022/06/06 07:33:00;;;;;;;7.05;6.45;;;21.80;62.20;;;;;;5074112;28;20397;-75
2022/06/06 07:36:01;;;;;;;6.30;5.80;;;21.80;61.60;;;;;;5074825;28;20066;-75
2022/06/06 07:38:29;;;;;;;6.80;6.20;;;21.70;62.20;;;;;;5075388;28;20393;-74
2022/06/06 07:41:23;;;;;;;6.57;6.07;;;21.80;62.90;;;;;;5074780;28;20070;-75
2022/06/06 07:44:08;;;;;;;6.28;5.78;;;21.90;61.10;;;;;;5073898;28;20359;-75
2022/06/06 07:47:05;;;;;;;6.68;6.15;;;22.20;61.00;;;;;;5073359;28;20029;-74
2022/06/06 07:49:55;;;;;;;7.10;6.47;;;22.50;59.30;;;;;;5074317;28;20020;-75
2022/06/06 07:52:33;;;;;;;6.68;6.05;;;22.80;58.90;;;;;;5073220;28;20107;-75
2022/06/06 07:55:31;;;;;;;6.75;6.10;;;23.10;58.40;;;;;;5074865;28;20043;-75
2022/06/06 07:58:09;;;;;;;7.45;6.47;;;23.20;57.00;;;;;;5073687;28;20037;-74
2022/06/06 08:00:35;;;;;;;7.05;6.35;;;23.10;56.80;;;;;;5073092;28;20031;-75
2022/06/06 08:03:07;;;;;;;6.88;6.22;;;23.10;57.40;;;;;;5072697;28;20375;-76
2022/06/06 08:06:05;;;;;;;8.10;6.05;;;23.50;58.40;;;;;;5058325;28;20101;-74
2022/06/06 08:08:50;;;;;;;7.10;6.50;;;23.80;56.30;;;;;;5073557;28;20478;-74
2022/06/06 08:11:52;;;;;;;7.07;6.53;;;23.90;56.70;;;;;;5074424;28;20078;-74
2022/06/06 08:14:44;;;;;;;8.07;7.18;;;24.10;56.10;;;;;;5073282;28;20036;-75
2022/06/06 08:17:18;;;;;;;7.78;7.10;;;24.00;55.70;;;;;;5056398;28;20029;-75
2022/06/06 08:20:03;;;;;;;7.22;6.60;;;23.90;55.00;;;;;;5052629;28;20049;-75
2022/06/06 08:22:29;;;;;;;7.68;7.07;;;23.70;54.80;;;;;;5054466;28;20017;-74
2022/06/06 08:25:00;;;;;;;6.70;6.20;;;23.70;55.30;;;;;;5053609;28;20021;-75
2022/06/06 08:27:28;;;;;;;7.00;6.38;;;23.80;55.90;;;;;;5054121;28;20060;-74
2022/06/06 08:29:53;;;;;;;8.88;6.43;;;23.90;56.10;;;;;;5051603;28;20025;-75
2022/06/06 08:32:19;;;;;;;7.18;6.57;;;24.00;55.80;;;;;;5054094;28;20083;-75
2022/06/06 08:34:45;;;;;;;7.63;6.75;;;24.20;55.50;;;;;;5051566;28;20079;-75
2022/06/06 08:37:24;;;;;;;6.65;6.15;;;24.30;54.80;;;;;;5054066;28;20036;-74
2022/06/06 08:40:42;;;;;;;8.60;7.82;;;24.40;54.80;;;;;;5054005;28;20386;-75
2022/06/06 08:43:22;;;;;;;7.43;6.70;;;24.40;54.80;;;;;;5045355;28;20037;-75
2022/06/06 08:46:08;;;;;;;7.28;6.70;;;24.50;54.30;;;;;;5059803;28;20486;-75
2022/06/06 08:48:41;;;;;;;7.40;6.72;;;24.60;53.40;;;;;;5074086;28;20025;-74
2022/06/06 08:51:18;;;;;;;;;;;24.70;54.40;;;;;;5072457;28;20024;-74
2022/06/06 08:54:02;;;;;;;7.72;7.13;;;24.90;54.40;;;;;;5072543;28;19912;-74
2022/06/06 08:56:55;;;;;;;7.80;7.10;;;24.90;54.40;;;;;;5073205;28;20028;-74
2022/06/06 08:59:39;;;;;;;7.75;6.93;;;24.90;54.30;;;;;;5072544;28;20490;-74
2022/06/06 09:02:34;;;;;;;7.68;7.05;;;25.00;53.90;;;;;;5073242;28;20029;-74
2022/06/06 09:05:29;;;;;;;8.15;7.35;;;25.00;52.50;;;;;;5055564;28;20033;-74
2022/06/06 09:08:07;;;;;;;7.57;6.97;;;25.30;51.80;;;;;;5053648;28;20497;-74
2022/06/06 09:10:39;;;;;;;7.55;6.85;;;25.20;52.10;;;;;;5057280;28;20501;-74
2022/06/06 09:13:24;;;;;;;7.35;6.75;;;25.10;51.20;;;;;;5073511;28;20028;-74
2022/06/06 09:15:58;;;;;;;9.00;6.68;;;25.30;51.70;;;;;;5065442;28;20398;-74
2022/06/06 09:18:55;;;;;;;7.72;6.95;;;25.40;51.90;;;;;;5052179;28;20041;-74
2022/06/06 09:21:45;;;;;;;7.30;6.70;;;25.30;51.60;;;;;;5052955;28;20479;-75
2022/06/06 09:24:48;;;;;;;6.88;6.20;;;25.60;53.10;;;;;;5053536;28;20025;-74
2022/06/06 09:27:48;;;;;;;8.38;7.57;;;25.50;51.90;;;;;;5069791;28;20025;-74
2022/06/06 09:30:19;;;;;;;7.68;6.97;;;25.60;52.60;;;;;;5072859;28;20030;-74
2022/06/06 09:33:17;;;;;;;8.93;7.17;;;25.40;52.20;;;;;;5073254;28;20040;-74
2022/06/06 09:35:55;;;;;;;9.05;7.22;;;25.30;52.00;;;;;;5072925;28;20350;-73
2022/06/06 09:38:53;;;;;;;7.03;6.53;;;25.40;52.50;;;;;;5073346;28;20108;-75
2022/06/06 09:41:35;;;;;;;8.90;7.20;;;25.20;51.90;;;;;;5071416;28;20027;-74
2022/06/06 09:44:09;;;;;;;7.72;7.03;;;25.20;51.90;;;;;;5073393;28;20052;-74
2022/06/06 09:46:38;;;;;;;8.50;7.22;;;25.00;52.50;;;;;;5071342;28;20482;-74
2022/06/06 09:49:28;;;;;;;7.82;7.10;;;24.90;54.60;;;;;;5071758;28;20032;-74
2022/06/06 09:52:31;;;;;;;7.72;7.03;;;25.20;53.80;;;;;;5072751;28;20070;-74
2022/06/06 10:01:32;;;;;;;7.05;6.55;;;25.50;52.80;;;;;;5072548;28;20101;-75
2022/06/06 10:04:35;;;;;;;7.47;6.75;;;25.20;52.80;;;;;;5063425;28;20482;-74
2022/06/06 10:07:19;;;;;;;7.43;6.72;;;25.00;53.60;;;;;;5068526;28;20076;-74
2022/06/06 10:10:04;;;;;;;8.00;6.72;;;25.30;53.30;;;;;;5072518;28;20029;-74
2022/06/06 10:13:00;;;;;;;7.40;6.80;;;25.20;52.80;;;;;;5071812;28;20131;-74
2022/06/06 10:15:57;;;;;;;6.85;6.32;;;25.10;53.90;;;;;;5072157;28;20455;-74
2022/06/06 10:18:29;;;;;;;7.20;6.60;;;25.20;52.60;;;;;;5043731;28;20033;-74
2022/06/06 10:21:12;;;;;;;6.87;6.37;;;25.00;53.40;;;;;;5063454;28;20024;-74
2022/06/06 10:24:07;;;;;;;6.57;6.05;;;25.10;54.20;;;;;;5075380;28;20452;-74
2022/06/06 10:26:55;;;;;;;7.40;6.78;;;25.00;54.30;;;;;;5075981;28;20020;-74
2022/06/06 10:32:31;;;;;;;7.60;7.00;;;25.10;54.20;;;;;;5060006;28;20040;-74
2022/06/06 10:35:14;;;;;;;8.20;7.15;;;25.00;54.90;;;;;;5076332;28;20100;-74
2022/06/06 10:37:47;;;;;;;7.03;6.43;;;25.10;55.10;;;;;;5076350;28;20355;-74
2022/06/06 10:40:21;;;;;;;8.15;7.38;;;24.90;54.90;;;;;;5074674;28;20478;-74
2022/06/06 10:43:22;;;;;;;7.82;7.07;;;24.70;53.50;;;;;;5076320;28;20075;-75
2022/06/06 10:46:25;;;;;;;7.85;7.18;;;24.80;53.00;;;;;;5075820;28;20485;-75
2022/06/06 10:48:51;;;;;;;;;;;24.80;55.30;;;;;;5076741;28;20017;-74
2022/06/06 10:51:57;;;;;;;7.63;7.03;;;24.60;54.90;;;;;;5075638;28;19908;-74
2022/06/06 10:54:43;;;;;;;7.18;6.50;;;24.30;55.90;;;;;;5076160;28;20042;-74
2022/06/06 10:57:33;;;;;;;7.90;6.93;;;24.50;55.30;;;;;;5075656;28;20390;-74
2022/06/06 11:00:28;;;;;;;9.57;7.65;;;24.60;55.00;;;;;;5074718;28;20390;-74
2022/06/06 11:03:33;;;;;;;8.00;7.30;;;24.60;54.30;;;;;;5074948;28;20550;-74
2022/06/06 11:06:26;;;;;;;8.82;6.88;;;24.60;54.00;;;;;;5059438;28;20131;-74
2022/06/06 11:09:35;;;;;;;8.20;7.40;;;24.70;54.50;;;;;;5075714;28;20020;-74
2022/06/06 11:12:32;;;;;;;7.68;6.95;;;24.80;52.80;;;;;;5075208;28;20067;-74
2022/06/06 11:15:01;;;;;;;8.20;7.40;;;24.80;54.30;;;;;;5074660;28;20035;-75
2022/06/06 11:17:45;;;;;;;7.68;7.07;;;24.80;53.50;;;;;;5055098;28;20037;-74
2022/06/06 11:20:36;;;;;;;7.35;6.80;;;24.80;53.80;;;;;;5055236;28;20021;-75
2022/06/06 11:23:35;;;;;;;7.05;6.55;;;24.70;52.90;;;;;;5054209;28;20025;-75
2022/06/06 11:26:25;;;;;;;7.57;6.80;;;24.70;53.60;;;;;;5062231;28;20020;-74
2022/06/06 11:29:12;;;;;;;8.73;7.15;;;24.60;53.40;;;;;;5074094;28;20075;-75
2022/06/06 11:32:13;;;;;;;7.97;7.07;;;24.70;55.30;;;;;;5074980;28;20024;-74
2022/06/06 11:35:21;;;;;;;7.47;6.88;;;24.70;54.40;;;;;;5075219;28;20028;-74
2022/06/06 11:37:58;;;;;;;8.27;7.07;;;24.80;55.20;;;;;;5075408;28;20033;-74
2022/06/06 11:41:02;;;;;;;7.60;6.88;;;24.80;53.90;;;;;;5073623;28;20466;-74
2022/06/06 11:43:39;;;;;;;13.35;7.97;;;24.90;54.30;;;;;;5075200;28;20026;-74
2022/06/06 11:46:23;;;;;;;8.45;7.63;;;24.80;53.60;;;;;;5074797;28;20113;-75
2022/06/06 11:48:51;;;;;;;7.75;6.45;;;24.80;53.80;;;;;;5053927;28;20110;-73
2022/06/06 11:51:42;;;;;;;8.13;7.53;;;24.90;53.30;;;;;;5070340;28;20036;-74
2022/06/06 11:54:27;;;;;;;7.82;7.22;;;24.80;54.60;;;;;;5074846;28;20055;-75
2022/06/06 11:57:12;;;;;;;7.75;7.05;;;24.80;54.50;;;;;;5074867;28;20490;-73
2022/06/06 12:00:04;;;;;;;8.85;8.05;;;24.90;55.70;;;;;;5074605;28;20035;-73
2022/06/06 12:02:42;;;;;;;8.18;6.78;;;24.90;55.70;;;;;;5073456;28;20029;-75
2022/06/06 12:05:49;;;;;;;7.50;6.80;;;24.90;54.20;;;;;;5054311;28;20032;-73
2022/06/06 12:08:27;;;;;;;7.35;6.72;;;24.90;55.60;;;;;;5053036;28;20080;-75
2022/06/06 12:11:20;;;;;;;6.82;6.20;;;24.80;54.70;;;;;;5054556;28;20021;-75
2022/06/06 12:13:57;;;;;;;7.57;6.97;;;24.90;55.10;;;;;;5054413;28;20036;-75
2022/06/06 12:16:43;;;;;;;7.55;6.88;;;25.10;54.30;;;;;;5054216;28;20078;-73
2022/06/06 12:19:31;;;;;;;7.43;6.75;;;25.30;54.00;;;;;;5052818;28;20393;-75
2022/06/06 12:22:27;;;;;;;7.80;7.20;;;25.50;53.80;;;;;;5054339;28;20057;-74
2022/06/06 12:25:02;;;;;;;7.55;6.95;;;25.70;52.00;;;;;;5052993;28;20025;-74
2022/06/06 12:28:01;;;;;;;6.95;6.35;;;25.80;50.80;;;;;;5053589;28;20029;-75
2022/06/06 12:30:57;;;;;;;7.03;6.43;;;26.20;50.80;;;;;;5079507;28;20490;-74
2022/06/06 12:33:30;;;;;;;7.60;6.90;;;26.20;50.90;;;;;;5052755;28;20064;-76
2022/06/06 12:36:01;;;;;;;5.95;5.53;;;26.10;49.60;;;;;;5055872;28;20710;-74
2022/06/06 12:38:35;;;;;;;7.78;6.35;;;26.00;49.70;;;;;;5055287;28;20071;-75
2022/06/06 12:41:43;;;;;;;6.43;5.93;;;25.80;49.70;;;;;;5052893;28;20021;-74
2022/06/06 12:44:34;;;;;;;6.38;5.82;;;25.70;49.80;;;;;;5062783;28;20090;-76
2022/06/06 12:47:12;;;;;;;7.63;6.50;;;25.50;49.80;;;;;;5055607;28;20046;-77
2022/06/06 12:50:12;;;;;;;6.00;5.50;;;25.50;52.00;;;;;;5057772;28;20048;-76
2022/06/06 12:52:40;;;;;;;8.52;5.75;;;25.70;51.30;;;;;;5067142;28;20043;-76
2022/06/06 12:56:16;;;;;;;6.60;5.95;;;25.90;50.40;;;;;;5052153;28;20033;-76
2022/06/06 12:58:45;;;;;;;13.88;8.43;;;26.10;48.90;;;;;;5039745;28;20047;-75
2022/06/06 13:01:40;;;;;;;7.15;6.65;;;26.40;49.70;;;;;;5052551;28;20036;-75
2022/06/06 13:04:29;;;;;;;6.32;5.70;;;26.50;49.10;;;;;;5067984;28;20029;-75
2022/06/06 13:06:58;;;;;;;6.45;5.85;;;26.70;47.90;;;;;;5057007;28;20053;-75
2022/06/06 13:09:36;;;;;;;5.82;5.40;;;26.70;48.90;;;;;;5051060;28;20479;-74
2022/06/06 13:12:22;;;;;;;6.60;5.82;;;26.70;46.80;;;;;;5056615;28;20025;-75
2022/06/06 13:15:03;;;;;;;5.25;4.85;;;26.70;48.20;;;;;;5064313;28;20039;-75
2022/06/06 13:17:40;;;;;;;7.22;5.93;;;26.80;47.20;;;;;;5052494;28;20025;-75
2022/06/06 13:20:34;;;;;;;6.63;6.03;;;26.80;48.80;;;;;;5052332;28;20037;-75
2022/06/06 13:23:06;;;;;;;7.05;6.45;;;26.80;48.20;;;;;;5062231;28;20021;-76
2022/06/06 13:25:48;;;;;;;6.43;5.82;;;26.80;46.70;;;;;;5051799;28;20061;-75
2022/06/06 13:28:40;;;;;;;6.28;5.47;;;26.90;47.10;;;;;;5059961;28;20013;-75
2022/06/06 13:31:24;;;;;;;7.30;6.60;;;26.90;47.00;;;;;;5048097;28;20119;-75
2022/06/06 13:34:22;;;;;;;6.70;6.10;;;27.00;49.00;;;;;;5052381;28;20069;-75
2022/06/06 13:37:02;;;;;;;8.98;6.13;;;27.10;47.90;;;;;;5058563;28;20352;-76
2022/06/06 13:39:53;;;;;;;7.63;5.63;;;27.00;48.20;;;;;;5060190;28;20394;-75
2022/06/06 13:42:48;;;;;;;6.25;5.75;;;27.00;48.30;;;;;;5063274;28;20375;-76
2022/06/06 13:45:31;;;;;;;6.95;5.32;;;27.00;45.90;;;;;;5059942;28;20056;-75
2022/06/06 13:48:12;;;;;;;6.28;5.70;;;26.80;45.30;;;;;;5060920;28;20021;-75
2022/06/06 13:50:51;;;;;;;6.53;5.93;;;26.80;46.30;;;;;;5051841;28;20187;-75
2022/06/06 13:53:28;;;;;;;6.25;5.57;;;26.80;47.20;;;;;;5050968;28;20421;-75
2022/06/06 13:56:11;;;;;;;6.35;5.80;;;26.70;46.70;;;;;;5057719;28;20056;-75
2022/06/06 13:58:55;;;;;;;5.68;5.18;;;26.60;47.20;;;;;;5062865;28;20508;-75
2022/06/06 14:01:54;;;;;;;15.48;6.03;;;26.60;48.10;;;;;;5063366;28;20021;-75
2022/06/06 14:04:46;;;;;;;6.00;5.60;;;26.60;46.50;;;;;;5059040;28;20033;-75
2022/06/06 14:07:17;;;;;;;7.15;6.10;;;26.60;47.80;;;;;;5051864;28;20520;-75
2022/06/06 14:09:46;;;;;;;10.30;5.82;;;26.70;47.80;;;;;;5052426;28;20033;-76
2022/06/06 14:12:40;;;;;;;6.28;5.78;;;26.70;46.30;;;;;;5054898;28;20028;-74